Airways and Terminal Forecast

Significant Meteorological Information

Terminal Aerodrome Forecast

TAF RPLL

021100Z 0212/0318 11008KT 9999 FEW025 TX35/0306Z TN26/0222Z TEMPO 0218/0224 10005KT TEMPO 0303/0309 12015KT=

TAF RPVM

021100Z 0212/0318 05009KT 9999 FEW020 SCT300 TEMPO 0212/0218 04012KT FEW020=

TAF RPLC

021100Z 0212/0318 09006KT 9999 FEW020 BKN300 TX35/0306Z TN24/0222Z TEMPO 0212/0218 36008KT SCT020 BKN100=

TAF RPLB

021100Z 0212/0312 08006KT 9999 FEW020 TX35/0306Z TN24/0221Z TEMPO 0212/0218 06008KT FEW020 SCT080=

TAF RPLI

021100Z 0212/0312 06008KT 9999 FEW018 TEMPO 0212/0218 02010KT FEW018 SCT090 TEMPO 0303/0309 34010KT FEW017CB FEW018=

TAF RPVP

021100Z 0212/0312 09006KT 9999 FEW019 TEMPO 0218/0224 27004KT TEMPO 0304/0308 09014KT=

TAF RPVD

021100Z 0212/0312 04008KT 9999 FEW015 SCT070 TEMPO 0212/0218 02004KT FEW015 BKN220=

TAF RPMR

021100Z 0212/0312 04006KT 9999 FEW018 SCT290 TEMPO 0212/0218 34004KT FEW018 SCT080=

TAF RPMD

021100Z 0212/0312 02006KT 9999 FEW016 SCT290 TEMPO 0212/0218 01008KT FEW016 BKN090=

TAF RPMZ

021100Z 0212/0312 26006KT 9999 FEW017 SCT300 TEMPO 0212/0218 VRB02KT FEW017 SCT090 TEMPO 0218/0224 VRB02KT=

 

RPLL FORECAST TAKE-OFF CONDITION

TIME

(UTC)

WIND

(dddffKT)

TEMP

(°C)

QNH

(hPa)

TIME

(UTC)

WIND

(dddffKT)

TEMP

(°C)

QNH

(hPa)

1200

11007KT

30.0

1012.5

1600

11006KT

28.0

1013.0

1300

11007KT

29.5

1013.0

1700

10005KT

27.5

1012.5

1400

11006KT

29.0

1013.5

1800

10005KT

27.5

1012.0

1500

11006KT

28.5

1014.0

1900

10004KT

27.0

1011.0

 

ISSUED AT NAIA AMSS-WD/PAGASA-DOST FOR 1100UTC 02 APRIL 2020

PREPARED BY:  SSDH                                                                                                         

CHECKED BY:  HFC